createdAt,value
2023-01-09T00:00:14.518Z,66.45
2023-01-09T00:01:21.160Z,66.38
2023-01-09T00:02:24.342Z,66.35
2023-01-09T00:03:27.451Z,66.36
2023-01-09T00:04:30.711Z,66.41
2023-01-09T00:05:33.742Z,66.41
2023-01-09T00:06:36.885Z,66.43
2023-01-09T00:07:39.847Z,66.33
2023-01-09T00:08:42.851Z,66.49
2023-01-09T00:09:45.764Z,66.39
2023-01-09T00:10:49.891Z,66.43
2023-01-09T00:11:54.443Z,66.19
2023-01-09T00:12:57.408Z,66.23
2023-01-09T00:14:00.358Z,66.04
2023-01-09T00:15:04.795Z,65.98
2023-01-09T00:16:08.862Z,66.05
2023-01-09T00:17:11.938Z,66.11
2023-01-09T00:18:14.870Z,66.12
2023-01-09T00:19:17.901Z,66.25
2023-01-09T00:20:21.337Z,66.21
2023-01-09T00:21:24.258Z,66.25
2023-01-09T00:22:27.176Z,66.16
2023-01-09T00:23:30.327Z,66.30
2023-01-09T00:24:33.273Z,66.32
2023-01-09T00:25:36.426Z,66.26
2023-01-09T00:26:39.825Z,66.41
2023-01-09T00:27:43.250Z,66.36
2023-01-09T00:28:48.306Z,66.33
2023-01-09T00:29:52.179Z,66.37
2023-01-09T00:30:56.975Z,66.43
2023-01-09T00:31:59.913Z,66.42
2023-01-09T00:33:02.992Z,66.37
2023-01-09T00:34:09.540Z,66.43
2023-01-09T00:35:15.805Z,66.49
2023-01-09T00:36:19.097Z,66.48
2023-01-09T00:37:22.535Z,66.41
2023-01-09T00:38:25.675Z,66.38
2023-01-09T00:39:28.916Z,66.32
2023-01-09T00:40:32.052Z,66.04
2023-01-09T00:41:44.483Z,65.87
2023-01-09T00:42:51.215Z,65.60
2023-01-09T00:43:57.774Z,65.35
2023-01-09T00:45:04.131Z,65.11
2023-01-09T00:46:08.138Z,64.93
2023-01-09T00:47:19.947Z,64.79
2023-01-09T00:48:26.716Z,64.60
2023-01-09T00:49:32.328Z,64.50
2023-01-09T00:50:36.116Z,64.45
2023-01-09T00:51:41.171Z,64.49
2023-01-09T00:52:45.960Z,64.33
2023-01-09T00:53:50.418Z,64.33
2023-01-09T00:54:53.599Z,64.33
2023-01-09T00:56:00.133Z,64.20
2023-01-09T00:57:03.568Z,64.33
2023-01-09T00:58:06.815Z,64.45
2023-01-09T00:59:09.780Z,64.57
2023-01-09T01:00:13.825Z,64.50
2023-01-09T01:01:16.937Z,64.51
2023-01-09T01:02:20.410Z,64.31
2023-01-09T01:03:23.392Z,64.30
2023-01-09T01:04:44.664Z,64.30
2023-01-09T01:06:06.091Z,64.32
2023-01-09T01:07:27.610Z,64.27
2023-01-09T01:08:30.598Z,64.37
2023-01-09T01:09:33.551Z,64.40
2023-01-09T01:10:36.904Z,64.46
2023-01-09T01:11:39.764Z,64.39
2023-01-09T01:12:43.884Z,64.43
2023-01-09T01:13:46.846Z,64.62
2023-01-09T01:14:49.763Z,64.65
2023-01-09T01:15:52.804Z,64.92
2023-01-09T01:16:55.922Z,65.02
2023-01-09T01:17:58.787Z,65.06
2023-01-09T01:19:02.141Z,65.05
2023-01-09T01:20:07.585Z,65.12
2023-01-09T01:21:12.267Z,65.30
2023-01-09T01:22:15.204Z,65.40
2023-01-09T01:23:18.162Z,65.56
2023-01-09T01:24:21.136Z,65.69
2023-01-09T01:25:24.366Z,65.76
2023-01-09T01:26:27.286Z,65.83
2023-01-09T01:27:30.214Z,65.99
2023-01-09T01:28:33.438Z,66.06
2023-01-09T01:29:36.579Z,66.12
2023-01-09T01:30:41.064Z,66.02
2023-01-09T01:31:43.972Z,66.04
2023-01-09T01:32:47.249Z,66.13
2023-01-09T01:33:50.200Z,66.04
2023-01-09T01:34:53.173Z,66.00
2023-01-09T01:36:07.877Z,65.90
2023-01-09T01:37:10.862Z,65.97
2023-01-09T01:38:13.902Z,66.01
2023-01-09T01:39:17.045Z,66.00
2023-01-09T01:40:20.356Z,66.14
2023-01-09T01:41:29.942Z,66.03
2023-01-09T01:42:33.235Z,66.04
2023-01-09T01:43:57.939Z,66.21
2023-01-09T01:45:16.290Z,66.12
2023-01-09T01:46:20.245Z,66.15
2023-01-09T01:47:26.702Z,66.16
2023-01-09T01:48:30.300Z,66.27
2023-01-09T01:49:33.432Z,66.35
2023-01-09T01:50:46.114Z,66.45
2023-01-09T01:51:52.637Z,66.35
2023-01-09T01:53:04.659Z,66.35
2023-01-09T01:54:11.168Z,66.34
2023-01-09T01:55:16.130Z,66.24
2023-01-09T01:56:25.902Z,66.19
2023-01-09T01:57:30.445Z,66.29
2023-01-09T01:58:36.868Z,66.08
2023-01-09T01:59:48.437Z,66.00
2023-01-09T02:00:51.880Z,66.10
2023-01-09T02:01:58.589Z,66.11
2023-01-09T02:03:02.572Z,65.99
2023-01-09T02:04:05.606Z,66.11
2023-01-09T02:05:09.058Z,66.13
2023-01-09T02:06:13.309Z,66.12
2023-01-09T02:07:16.268Z,65.97
2023-01-09T02:08:20.019Z,66.00
2023-01-09T02:09:24.681Z,65.86
2023-01-09T02:10:28.147Z,65.79
2023-01-09T02:11:31.530Z,65.88
2023-01-09T02:12:34.542Z,65.78
2023-01-09T02:13:39.886Z,65.84
2023-01-09T02:14:44.906Z,65.83
2023-01-09T02:15:57.645Z,65.80
2023-01-09T02:17:04.298Z,65.71
2023-01-09T02:18:13.793Z,65.72
2023-01-09T02:19:23.180Z,65.56
2023-01-09T02:20:44.706Z,65.68
2023-01-09T02:22:08.173Z,65.70
2023-01-09T02:23:32.687Z,65.57
2023-01-09T02:24:45.291Z,65.73
2023-01-09T02:26:08.752Z,65.62
2023-01-09T02:27:27.269Z,65.56
2023-01-09T02:28:36.764Z,65.44
2023-01-09T02:30:14.960Z,65.45
2023-01-09T02:31:37.211Z,65.54
2023-01-09T02:32:44.159Z,65.46
2023-01-09T02:34:11.430Z,65.49
2023-01-09T02:35:17.957Z,65.52
2023-01-09T02:36:36.411Z,65.51
2023-01-09T02:38:03.940Z,65.38
2023-01-09T02:39:13.509Z,65.46
2023-01-09T02:40:22.116Z,65.52
2023-01-09T02:41:34.554Z,65.45
2023-01-09T02:42:40.583Z,65.58
2023-01-09T02:43:43.680Z,65.65
2023-01-09T02:44:46.700Z,65.72
2023-01-09T02:45:49.804Z,65.71
2023-01-09T02:47:08.012Z,65.66
2023-01-09T02:48:11.593Z,65.50
2023-01-09T02:49:16.519Z,65.38
2023-01-09T02:50:26.419Z,65.38
2023-01-09T02:51:38.453Z,65.55
2023-01-09T02:52:44.976Z,65.53
2023-01-09T02:53:54.722Z,65.57
2023-01-09T02:55:04.333Z,65.48
2023-01-09T02:56:16.948Z,65.47
2023-01-09T02:57:35.684Z,65.59
2023-01-09T02:58:46.326Z,65.43
2023-01-09T03:00:16.963Z,65.55
2023-01-09T03:01:26.680Z,65.50
2023-01-09T03:02:34.011Z,65.62
2023-01-09T03:04:01.837Z,65.50
2023-01-09T03:05:24.749Z,65.65
2023-01-09T03:06:39.979Z,65.71
2023-01-09T03:07:49.577Z,65.59
2023-01-09T03:08:56.859Z,65.62
2023-01-09T03:10:09.502Z,65.73
2023-01-09T03:11:12.410Z,65.57
2023-01-09T03:12:19.008Z,65.61
2023-01-09T03:13:24.386Z,65.62
2023-01-09T03:14:30.998Z,65.67
2023-01-09T03:15:36.581Z,65.57
2023-01-09T03:16:41.857Z,65.57
2023-01-09T03:17:48.072Z,65.66
2023-01-09T03:18:52.457Z,65.62
2023-01-09T03:19:57.533Z,65.60
2023-01-09T03:21:01.898Z,65.53
2023-01-09T03:22:07.160Z,65.44
2023-01-09T03:23:10.221Z,65.36
2023-01-09T03:24:13.177Z,65.29
2023-01-09T03:25:17.724Z,65.22
2023-01-09T03:26:21.358Z,65.33
2023-01-09T03:27:24.598Z,65.28
2023-01-09T03:28:30.336Z,65.08
2023-01-09T03:29:33.405Z,65.15
2023-01-09T03:30:37.037Z,65.04
2023-01-09T03:31:40.053Z,65.05
2023-01-09T03:32:43.149Z,65.05
2023-01-09T03:33:46.026Z,65.15
2023-01-09T03:34:48.984Z,65.01
2023-01-09T03:35:51.934Z,65.19
2023-01-09T03:36:54.991Z,65.07
2023-01-09T03:37:58.651Z,65.11
2023-01-09T03:39:01.590Z,65.06
2023-01-09T03:40:05.500Z,65.06
2023-01-09T03:41:08.553Z,65.15
2023-01-09T03:42:11.493Z,65.15
2023-01-09T03:43:14.617Z,65.00
2023-01-09T03:44:17.694Z,65.03
2023-01-09T03:45:20.771Z,65.09
2023-01-09T03:46:23.874Z,64.94
2023-01-09T03:47:27.103Z,64.95
2023-01-09T03:48:30.135Z,65.05
2023-01-09T03:49:33.069Z,65.02
2023-01-09T03:50:36.312Z,65.01
2023-01-09T03:51:39.259Z,65.01
2023-01-09T03:52:42.295Z,64.93
2023-01-09T03:53:45.323Z,65.04
2023-01-09T03:54:48.262Z,65.04
2023-01-09T03:55:53.601Z,65.03
2023-01-09T03:56:56.583Z,65.04
2023-01-09T03:57:59.608Z,65.01
2023-01-09T03:59:02.534Z,64.99
2023-01-09T04:00:07.941Z,64.85
2023-01-09T04:01:13.161Z,64.81
2023-01-09T04:02:16.636Z,64.93
2023-01-09T04:03:20.704Z,64.91
2023-01-09T04:04:23.635Z,64.79
2023-01-09T04:05:26.661Z,64.82
2023-01-09T04:06:29.820Z,64.73
2023-01-09T04:07:32.832Z,64.64
2023-01-09T04:08:35.764Z,64.54
2023-01-09T04:09:38.683Z,64.54
2023-01-09T04:10:44.182Z,64.52
2023-01-09T04:11:47.454Z,64.46
2023-01-09T04:12:50.380Z,64.46
2023-01-09T04:13:53.305Z,64.58
2023-01-09T04:14:56.568Z,64.46
2023-01-09T04:15:59.680Z,64.36
2023-01-09T04:17:02.653Z,64.33
2023-01-09T04:18:05.587Z,64.10
2023-01-09T04:19:08.506Z,63.96
2023-01-09T04:20:12.789Z,63.99
2023-01-09T04:21:15.735Z,63.90
2023-01-09T04:22:18.697Z,63.80
2023-01-09T04:23:21.610Z,63.98
2023-01-09T04:24:24.528Z,64.01
2023-01-09T04:25:27.600Z,64.03
2023-01-09T04:26:30.532Z,64.00
2023-01-09T04:27:34.940Z,63.89
2023-01-09T04:28:37.993Z,63.81
2023-01-09T04:29:40.939Z,63.79
2023-01-09T04:30:44.267Z,63.58
2023-01-09T04:31:47.286Z,63.61
2023-01-09T04:32:51.491Z,63.55
2023-01-09T04:33:54.481Z,63.57
2023-01-09T04:34:57.516Z,63.61
2023-01-09T04:36:00.475Z,63.50
2023-01-09T04:37:03.677Z,63.66
2023-01-09T04:38:06.724Z,63.71
2023-01-09T04:39:09.869Z,63.66
2023-01-09T04:40:13.720Z,63.75
2023-01-09T04:41:18.540Z,63.73
2023-01-09T04:42:21.702Z,63.80
2023-01-09T04:43:24.750Z,63.83
2023-01-09T04:44:27.718Z,63.79
2023-01-09T04:45:30.809Z,63.92
2023-01-09T04:46:34.017Z,63.94
2023-01-09T04:47:37.267Z,63.84
2023-01-09T04:48:40.211Z,64.00
2023-01-09T04:49:43.258Z,63.97
2023-01-09T04:50:46.189Z,63.90
2023-01-09T04:51:49.240Z,63.98
2023-01-09T04:52:52.190Z,63.89
2023-01-09T04:53:55.127Z,64.04
2023-01-09T04:54:58.182Z,63.95
2023-01-09T04:56:01.647Z,64.04
2023-01-09T04:57:04.621Z,64.02
2023-01-09T04:58:07.652Z,64.01
2023-01-09T04:59:10.702Z,63.88
2023-01-09T05:00:14.579Z,63.82
2023-01-09T05:01:17.722Z,63.80
2023-01-09T05:02:20.894Z,63.75
2023-01-09T05:03:23.913Z,63.88
2023-01-09T05:04:27.077Z,63.89
2023-01-09T05:05:30.235Z,63.75
2023-01-09T05:06:33.802Z,63.94
2023-01-09T05:07:36.844Z,64.03
2023-01-09T05:08:39.904Z,64.03
2023-01-09T05:09:44.148Z,63.89
2023-01-09T05:10:47.418Z,63.94
2023-01-09T05:11:50.842Z,63.86
2023-01-09T05:12:53.767Z,64.02
2023-01-09T05:13:56.629Z,64.05
2023-01-09T05:14:59.767Z,64.05
2023-01-09T05:16:02.751Z,64.03
2023-01-09T05:17:05.677Z,64.07
2023-01-09T05:18:08.588Z,64.10
2023-01-09T05:19:11.776Z,64.19
2023-01-09T05:20:15.170Z,64.24
2023-01-09T05:21:18.226Z,64.17
2023-01-09T05:22:21.365Z,64.25
2023-01-09T05:23:24.292Z,64.14
2023-01-09T05:24:27.310Z,64.15
2023-01-09T05:25:30.266Z,64.19
2023-01-09T05:26:33.503Z,64.17
2023-01-09T05:27:36.522Z,64.14
2023-01-09T05:28:39.504Z,64.02
2023-01-09T05:29:42.457Z,64.07
2023-01-09T05:30:46.878Z,64.05
2023-01-09T05:31:49.942Z,63.94
2023-01-09T05:32:52.934Z,64.03
2023-01-09T05:33:57.595Z,64.02
2023-01-09T05:35:00.584Z,64.02
2023-01-09T05:36:03.845Z,64.01
2023-01-09T05:37:06.989Z,63.88
2023-01-09T05:38:11.025Z,63.70
2023-01-09T05:39:13.987Z,63.53
2023-01-09T05:40:17.552Z,63.29
2023-01-09T05:41:21.366Z,63.03
2023-01-09T05:42:25.284Z,62.98
2023-01-09T05:43:28.291Z,62.92
2023-01-09T05:44:31.223Z,62.72
2023-01-09T05:45:34.840Z,62.63
2023-01-09T05:46:37.909Z,62.58
2023-01-09T05:47:41.280Z,62.51
2023-01-09T05:48:44.642Z,62.55
2023-01-09T05:49:47.771Z,62.63
2023-01-09T05:50:50.812Z,62.57
2023-01-09T05:51:53.842Z,62.55
2023-01-09T05:52:56.779Z,62.52
2023-01-09T05:53:59.979Z,62.51
2023-01-09T05:55:03.192Z,62.41
2023-01-09T05:56:06.680Z,62.54
2023-01-09T05:57:09.867Z,62.45
2023-01-09T05:58:13.042Z,62.57
2023-01-09T05:59:16.224Z,62.58
2023-01-09T06:00:19.840Z,62.58
2023-01-09T06:01:23.837Z,62.61
2023-01-09T06:02:27.195Z,62.52
2023-01-09T06:03:30.114Z,62.55
2023-01-09T06:04:33.153Z,62.65
2023-01-09T06:05:36.104Z,62.63
2023-01-09T06:06:40.345Z,62.57
2023-01-09T06:07:43.506Z,62.57
2023-01-09T06:08:46.447Z,62.63
2023-01-09T06:09:49.806Z,62.63
2023-01-09T06:10:52.854Z,62.87
2023-01-09T06:11:56.477Z,63.13
2023-01-09T06:12:59.525Z,63.41
2023-01-09T06:14:02.484Z,63.64
2023-01-09T06:15:08.664Z,63.72
2023-01-09T06:16:13.130Z,64.02
2023-01-09T06:17:16.081Z,64.12
2023-01-09T06:18:19.521Z,64.42
2023-01-09T06:19:22.472Z,64.49
2023-01-09T06:25:26.919Z,64.90
2023-01-09T06:26:29.846Z,65.13
2023-01-09T06:27:32.923Z,65.24
2023-01-09T06:28:35.858Z,65.33
2023-01-09T06:29:39.585Z,65.34
2023-01-09T06:30:42.588Z,65.49
2023-01-09T06:31:45.651Z,65.55
2023-01-09T06:32:49.480Z,65.59
2023-01-09T06:33:52.679Z,65.45
2023-01-09T06:34:55.632Z,65.58
2023-01-09T06:35:58.701Z,65.61
2023-01-09T06:37:02.198Z,65.61
2023-01-09T06:38:05.667Z,65.62
2023-01-09T06:39:09.100Z,65.50
2023-01-09T06:40:13.479Z,65.58
2023-01-09T06:41:16.730Z,65.48
2023-01-09T06:42:20.002Z,65.42
2023-01-09T06:43:23.375Z,65.45
2023-01-09T06:44:26.416Z,65.44
2023-01-09T06:45:29.556Z,65.60
2023-01-09T06:46:32.615Z,65.49
2023-01-09T06:47:35.531Z,65.51
2023-01-09T06:48:38.958Z,65.26
2023-01-09T06:49:41.839Z,65.17
2023-01-09T06:50:45.877Z,65.12
2023-01-09T06:51:50.588Z,65.19
2023-01-09T06:52:53.730Z,65.20
2023-01-09T06:53:56.760Z,65.24
2023-01-09T06:55:00.119Z,65.26
2023-01-09T06:56:03.509Z,65.20
2023-01-09T06:57:06.840Z,65.35
2023-01-09T06:58:09.854Z,65.38
2023-01-09T06:59:12.974Z,65.32
2023-01-09T07:00:16.787Z,65.48
2023-01-09T07:01:19.996Z,65.58
2023-01-09T07:02:23.368Z,65.64
2023-01-09T07:03:26.283Z,65.63
2023-01-09T07:04:29.393Z,65.58
2023-01-09T07:05:35.925Z,65.77
2023-01-09T07:06:39.190Z,65.77
2023-01-09T07:07:42.441Z,65.78
2023-01-09T07:08:47.776Z,65.78
2023-01-09T07:09:50.335Z,65.76
2023-01-09T07:10:53.622Z,65.62
2023-01-09T07:11:56.586Z,65.72
2023-01-09T07:12:59.400Z,65.75
2023-01-09T07:14:02.451Z,65.77
2023-01-09T07:15:06.042Z,65.79
2023-01-09T07:16:09.593Z,65.77
2023-01-09T07:17:13.172Z,65.81
2023-01-09T07:18:16.325Z,65.79
2023-01-09T07:19:19.364Z,65.83
2023-01-09T07:20:23.316Z,65.85
2023-01-09T07:21:27.189Z,65.92
2023-01-09T07:22:30.124Z,65.98
2023-01-09T07:23:33.976Z,65.90
2023-01-09T07:24:36.915Z,65.96
2023-01-09T07:25:41.984Z,65.95
2023-01-09T07:26:45.283Z,66.08
2023-01-09T07:27:48.238Z,66.12
2023-01-09T07:28:51.301Z,66.03
2023-01-09T07:29:54.256Z,66.14
2023-01-09T07:31:01.160Z,66.18
2023-01-09T07:32:04.478Z,66.15
2023-01-09T07:33:07.522Z,66.11
2023-01-09T07:34:10.569Z,66.15
2023-01-09T07:35:13.510Z,66.16
2023-01-09T07:36:17.178Z,66.30
2023-01-09T07:37:20.116Z,66.39
2023-01-09T07:38:23.150Z,66.42
2023-01-09T07:39:26.769Z,66.43
2023-01-09T07:40:30.022Z,66.47
2023-01-09T07:41:33.082Z,66.53
2023-01-09T07:42:36.146Z,66.43
2023-01-09T07:43:39.498Z,66.54
2023-01-09T07:44:42.552Z,66.57
2023-01-09T07:45:46.030Z,66.73
2023-01-09T07:46:49.288Z,66.64
2023-01-09T07:47:52.347Z,66.66
2023-01-09T07:48:55.516Z,66.75
2023-01-09T07:49:58.569Z,66.71
2023-01-09T07:51:01.722Z,66.67
2023-01-09T07:52:04.683Z,66.61
2023-01-09T07:53:07.732Z,66.52
2023-01-09T07:54:12.949Z,66.54
2023-01-09T07:55:17.441Z,66.69
2023-01-09T07:56:21.639Z,66.63
2023-01-09T07:57:24.600Z,66.63
2023-01-09T07:58:27.537Z,66.59
2023-01-09T07:59:30.479Z,66.75
2023-01-09T08:00:33.581Z,66.65
2023-01-09T08:01:36.738Z,66.69
2023-01-09T08:02:39.768Z,66.56
2023-01-09T08:03:42.674Z,66.65
2023-01-09T08:04:45.787Z,66.66
2023-01-09T08:05:51.296Z,66.53
2023-01-09T08:06:53.518Z,66.60
2023-01-09T08:07:56.459Z,66.58
2023-01-09T08:08:59.604Z,66.61
2023-01-09T08:10:02.664Z,66.57
2023-01-09T08:11:05.699Z,66.58
2023-01-09T08:12:08.787Z,66.67
2023-01-09T08:13:11.918Z,66.69
2023-01-09T08:14:14.954Z,66.73
2023-01-09T08:15:18.122Z,66.75
2023-01-09T08:16:21.142Z,66.66
2023-01-09T08:17:26.430Z,66.79
2023-01-09T08:18:28.866Z,66.83
2023-01-09T08:19:31.803Z,66.88
2023-01-09T08:20:34.990Z,66.93
2023-01-09T08:21:39.035Z,66.96
2023-01-09T08:22:43.352Z,66.87
2023-01-09T08:23:46.468Z,66.70
2023-01-09T08:24:49.470Z,66.55
2023-01-09T13:32:03.070Z,72.66
2023-01-09T13:34:35.675Z,71.89
2023-01-09T13:35:53.987Z,71.73
2023-01-09T13:36:58.312Z,71.51
2023-01-09T13:38:01.400Z,71.47
2023-01-09T13:39:05.038Z,71.35
2023-01-09T13:40:26.447Z,71.23
2023-01-09T13:41:49.077Z,71.01
2023-01-09T13:43:04.926Z,70.82
2023-01-09T13:44:25.384Z,70.79
2023-01-09T13:45:31.979Z,70.69
2023-01-09T13:46:44.301Z,70.50
2023-01-09T13:47:49.561Z,70.37
2023-01-09T13:48:52.656Z,70.12
2023-01-09T13:50:10.683Z,69.83
2023-01-09T13:51:44.615Z,69.61
2023-01-09T13:52:47.486Z,69.51
2023-01-09T13:53:50.465Z,69.26
2023-01-09T13:55:00.037Z,69.01
2023-01-09T13:56:05.764Z,68.97
2023-01-09T13:57:21.130Z,68.71
2023-01-09T13:58:32.386Z,68.64
2023-01-09T13:59:35.275Z,68.44
2023-01-09T14:00:42.046Z,68.27
2023-01-09T14:01:46.915Z,68.12
2023-01-09T14:02:59.071Z,67.89
2023-01-09T14:04:13.377Z,67.84
2023-01-09T14:05:25.989Z,67.64
2023-01-09T14:06:29.339Z,67.54
2023-01-09T14:07:37.032Z,67.43
2023-01-09T14:08:41.493Z,67.29
2023-01-09T14:09:48.088Z,67.07
2023-01-09T14:11:01.083Z,66.99
2023-01-09T14:12:06.298Z,66.92
2023-01-09T14:13:15.562Z,66.77
2023-01-09T14:14:25.225Z,66.64
2023-01-09T14:15:31.779Z,66.46
2023-01-09T14:16:36.697Z,66.34
2023-01-09T14:17:39.815Z,66.22
2023-01-09T14:19:07.349Z,66.14
2023-01-09T14:20:13.956Z,66.03
2023-01-09T14:21:17.321Z,65.88
2023-01-09T14:22:29.440Z,65.88
2023-01-09T14:23:50.948Z,65.82
2023-01-09T14:24:45.637Z,65.73
2023-01-09T14:25:50.729Z,65.66
2023-01-09T14:26:59.486Z,65.55
2023-01-09T14:28:07.632Z,65.38
2023-01-09T14:29:33.773Z,65.38
2023-01-09T14:30:55.486Z,65.30
2023-01-09T16:52:35.887Z,67.38
2023-01-09T16:53:38.847Z,67.06
2023-01-09T16:54:43.263Z,66.91
2023-01-09T16:55:46.977Z,66.74
2023-01-09T16:56:53.008Z,66.81
2023-01-09T16:57:56.028Z,66.64
2023-01-09T16:58:59.088Z,66.72
2023-01-09T17:00:03.238Z,66.55
2023-01-09T17:01:06.609Z,66.51
2023-01-09T17:02:18.589Z,66.55
2023-01-09T17:03:22.036Z,66.53
2023-01-09T17:04:25.130Z,66.39
2023-01-09T17:05:28.115Z,66.48
2023-01-09T17:06:32.290Z,66.45
2023-01-09T17:07:37.330Z,66.39
2023-01-09T17:08:40.837Z,66.33
2023-01-09T17:09:45.290Z,66.21
2023-01-09T17:10:49.234Z,66.16
2023-01-09T17:11:52.323Z,66.13
2023-01-09T17:12:56.470Z,66.03
2023-01-09T17:14:01.363Z,66.05
2023-01-09T17:15:04.934Z,66.01
2023-01-09T17:16:10.649Z,65.95
2023-01-09T17:17:14.199Z,65.80
2023-01-09T17:18:22.935Z,65.90
2023-01-09T17:19:26.029Z,65.71
2023-01-09T17:20:30.001Z,65.72
2023-01-09T17:21:32.979Z,65.53
2023-01-09T17:22:36.072Z,65.49
2023-01-09T17:23:39.260Z,65.40
2023-01-09T17:25:00.405Z,65.31
2023-01-09T17:26:21.679Z,65.36
2023-01-09T17:27:50.030Z,65.28
2023-01-09T17:28:53.157Z,65.23
2023-01-09T17:29:56.243Z,65.14
2023-01-09T17:31:10.934Z,65.00
2023-01-09T17:32:17.898Z,64.92
2023-01-09T17:33:21.185Z,64.87
2023-01-09T17:34:24.415Z,64.93
2023-01-09T17:35:27.385Z,64.73
2023-01-09T17:36:33.964Z,64.78
2023-01-09T17:37:36.926Z,64.75
2023-01-09T17:38:39.998Z,64.69
2023-01-09T17:39:43.791Z,64.58
2023-01-09T17:40:46.859Z,64.60
2023-01-09T17:41:50.071Z,64.55
2023-01-09T17:42:53.169Z,64.47
2023-01-09T17:43:56.859Z,64.32
2023-01-09T17:44:59.907Z,64.32
2023-01-09T17:46:03.173Z,64.24
2023-01-09T17:47:06.728Z,64.16
2023-01-09T17:48:18.969Z,63.99
2023-01-09T17:49:22.971Z,63.96
2023-01-09T17:50:27.915Z,63.99
2023-01-09T17:51:31.006Z,63.83
2023-01-09T17:52:34.080Z,63.88
2023-01-09T17:53:37.046Z,63.82
2023-01-09T17:54:40.237Z,63.76
2023-01-09T17:55:43.315Z,63.69
2023-01-09T17:56:50.247Z,63.56
2023-01-09T17:57:53.511Z,63.48
2023-01-09T17:58:56.628Z,63.55
2023-01-09T17:59:59.713Z,63.39
2023-01-09T18:01:02.946Z,63.44
2023-01-09T18:02:06.552Z,63.40
2023-01-09T18:03:09.545Z,63.34
2023-01-09T18:04:12.559Z,63.27
2023-01-09T18:05:15.725Z,63.23
2023-01-09T18:06:21.002Z,63.19
2023-01-09T18:07:24.035Z,63.11
2023-01-09T18:08:27.229Z,62.99
2023-01-09T18:09:30.356Z,62.94
2023-01-09T18:10:33.378Z,62.93
2023-01-09T18:11:36.453Z,62.75
2023-01-09T18:12:39.532Z,62.81
2023-01-09T18:13:43.298Z,62.75
2023-01-09T18:14:47.833Z,62.63
2023-01-09T18:15:51.637Z,62.62
2023-01-09T18:16:55.069Z,62.59
2023-01-09T18:17:58.167Z,62.66
2023-01-09T18:19:01.416Z,62.53
2023-01-09T18:20:05.241Z,62.47
2023-01-09T18:21:08.930Z,62.55
2023-01-09T18:22:11.924Z,62.46
2023-01-09T18:23:15.857Z,62.44
2023-01-09T18:24:18.836Z,62.41
2023-01-09T18:25:21.837Z,62.34
2023-01-09T18:26:24.814Z,62.41
2023-01-09T18:27:28.217Z,62.26
2023-01-09T18:28:31.147Z,62.16
2023-01-09T18:29:34.062Z,62.15
2023-01-09T18:30:37.035Z,62.14
2023-01-09T18:31:40.130Z,62.21
2023-01-09T18:32:43.156Z,62.20
2023-01-09T18:33:46.235Z,62.03
2023-01-09T18:34:49.410Z,62.13
2023-01-09T18:35:52.576Z,62.08
2023-01-09T18:36:55.586Z,62.03
2023-01-09T18:37:58.482Z,61.98
2023-01-09T18:39:03.511Z,61.96
2023-01-09T18:40:07.576Z,61.92
2023-01-09T18:41:11.051Z,61.87
2023-01-09T18:42:14.177Z,61.84
2023-01-09T18:43:19.016Z,61.81
2023-01-09T18:44:22.883Z,61.68
2023-01-09T18:45:26.307Z,61.66
2023-01-09T18:46:31.249Z,61.72
2023-01-09T18:47:34.239Z,61.73
2023-01-09T18:48:37.279Z,61.73
2023-01-09T18:49:40.252Z,61.69
2023-01-09T18:50:45.063Z,61.55
2023-01-09T18:51:48.340Z,61.58
2023-01-09T18:52:51.482Z,61.56
2023-01-09T18:53:55.202Z,61.52
2023-01-09T18:54:58.302Z,61.43
2023-01-09T18:57:14.793Z,61.40
2023-01-09T18:58:17.730Z,61.48
2023-01-09T18:59:20.647Z,61.47
2023-01-09T19:00:23.930Z,61.45
2023-01-09T19:01:28.617Z,61.33
2023-01-09T19:02:31.714Z,61.24
2023-01-09T19:03:34.818Z,61.24
2023-01-09T19:04:37.819Z,61.28
2023-01-09T19:05:40.868Z,61.22
2023-01-09T19:06:44.107Z,61.20
2023-01-09T19:07:47.290Z,61.15
2023-01-09T19:08:50.320Z,61.01
2023-01-09T19:09:53.464Z,60.95
2023-01-09T19:10:57.257Z,61.05
2023-01-09T19:12:00.263Z,60.94
2023-01-09T19:13:03.433Z,60.97
2023-01-09T19:14:06.417Z,60.93
2023-01-09T19:15:11.078Z,60.93
2023-01-09T19:16:14.136Z,60.96
2023-01-09T19:17:17.341Z,60.87
2023-01-09T19:18:20.408Z,60.86
2023-01-09T19:19:23.441Z,60.95
2023-01-09T19:20:26.485Z,60.91
2023-01-09T19:21:29.346Z,60.74
2023-01-09T19:22:32.591Z,60.81
2023-01-09T19:23:35.665Z,60.76
2023-01-09T19:24:39.031Z,60.70
2023-01-09T19:25:42.201Z,60.58
2023-01-09T19:26:47.303Z,60.53
2023-01-09T19:27:52.184Z,60.48
2023-01-09T19:28:56.885Z,60.54
2023-01-09T19:29:59.988Z,60.36
2023-01-09T19:31:03.259Z,60.27
2023-01-09T19:32:07.913Z,60.33
2023-01-09T19:33:11.918Z,60.22
2023-01-09T19:34:15.510Z,60.15
2023-01-09T19:35:19.588Z,60.23
2023-01-09T19:36:22.613Z,60.22
2023-01-09T19:37:25.708Z,60.19
2023-01-09T19:38:28.885Z,60.08
2023-01-09T19:39:31.927Z,60.19
2023-01-09T19:40:35.983Z,60.00
2023-01-09T19:41:39.213Z,60.16
2023-01-09T19:42:42.322Z,60.11
2023-01-09T19:43:46.397Z,60.07
2023-01-09T19:44:49.486Z,60.04
2023-01-09T19:45:53.857Z,59.86
2023-01-09T19:46:57.211Z,59.85
2023-01-09T19:48:00.328Z,59.93
2023-01-09T19:49:04.509Z,59.79
2023-01-09T19:50:08.470Z,59.82
2023-01-09T19:51:13.127Z,59.74
2023-01-09T19:52:16.421Z,59.74
2023-01-09T19:53:19.619Z,59.76
2023-01-09T19:54:22.623Z,59.60
2023-01-09T19:55:25.589Z,59.71
2023-01-09T19:56:35.076Z,59.70
2023-01-09T19:57:38.059Z,59.68
2023-01-09T19:58:42.146Z,59.64
2023-01-09T19:59:45.244Z,59.52
2023-01-09T20:00:48.835Z,59.55
2023-01-09T20:01:52.031Z,59.54
2023-01-09T20:02:55.438Z,59.63
2023-01-09T20:04:04.285Z,59.52
2023-01-09T20:05:07.967Z,59.47
2023-01-09T20:06:16.064Z,59.55
2023-01-09T20:07:20.774Z,59.41
2023-01-09T20:08:24.004Z,59.39
2023-01-09T20:09:28.343Z,59.50
2023-01-09T20:10:31.630Z,59.47
2023-01-09T20:11:34.797Z,59.45
2023-01-09T20:12:37.902Z,59.42
2023-01-09T20:13:41.191Z,59.44
2023-01-09T20:14:44.664Z,59.41
2023-01-09T20:15:47.641Z,59.36
2023-01-09T20:16:52.667Z,59.33
2023-01-09T20:17:55.695Z,59.30
2023-01-09T20:19:03.369Z,59.29
2023-01-09T20:20:07.491Z,59.30
2023-01-09T20:21:10.686Z,59.12
2023-01-09T20:22:13.778Z,59.20
2023-01-09T20:23:21.548Z,59.08
2023-01-09T20:24:24.790Z,59.17
2023-01-09T20:25:28.499Z,59.02
2023-01-09T20:26:33.383Z,59.08
2023-01-09T20:27:36.596Z,59.05
2023-01-09T20:28:39.658Z,58.92
2023-01-09T20:29:43.912Z,58.98
2023-01-09T20:30:50.170Z,58.94
2023-01-09T20:31:53.222Z,58.91
2023-01-09T20:32:56.140Z,58.87
2023-01-09T20:33:59.489Z,58.76
2023-01-09T20:35:02.581Z,58.83
2023-01-09T20:36:06.315Z,58.79
2023-01-09T20:37:09.870Z,58.70
2023-01-09T20:38:13.693Z,58.79
2023-01-09T20:39:16.881Z,58.69
2023-01-09T20:40:19.814Z,58.67
2023-01-09T20:41:23.376Z,58.75
2023-01-09T20:42:26.425Z,58.76
2023-01-09T20:43:29.648Z,58.64
2023-01-09T20:44:32.729Z,58.59
2023-01-09T20:45:36.200Z,58.68
2023-01-09T20:46:41.453Z,58.68
2023-01-09T20:47:44.956Z,58.66
2023-01-09T20:48:48.903Z,58.65
2023-01-09T20:49:51.961Z,58.59
2023-01-09T20:50:55.367Z,58.59
2023-01-09T20:51:58.469Z,58.43
2023-01-09T20:53:02.196Z,58.50
2023-01-09T20:54:05.206Z,58.47
2023-01-09T20:55:09.069Z,58.46
2023-01-09T20:56:12.748Z,58.47
2023-01-09T20:57:15.602Z,58.33
2023-01-09T20:58:18.759Z,58.43
2023-01-09T20:59:22.347Z,58.40
2023-01-09T21:00:27.479Z,58.39
2023-01-09T21:01:30.492Z,58.40
2023-01-09T21:02:35.232Z,58.29
2023-01-09T21:03:38.923Z,58.32
2023-01-09T21:04:42.098Z,58.32
2023-01-09T21:05:45.248Z,58.33
2023-01-09T21:06:50.047Z,58.29
2023-01-09T21:07:53.387Z,58.24
2023-01-09T21:08:56.455Z,58.17
2023-01-09T21:09:59.634Z,58.04
2023-01-09T21:11:03.126Z,58.12
2023-01-09T21:12:08.531Z,58.06
2023-01-09T21:13:11.771Z,57.90
2023-01-09T21:14:14.869Z,57.95
2023-01-09T21:15:19.202Z,57.90
2023-01-09T21:16:24.544Z,57.86
2023-01-09T21:17:28.596Z,57.75
2023-01-09T21:18:32.194Z,57.83
2023-01-09T21:19:35.312Z,57.83
2023-01-09T21:20:39.530Z,57.79
2023-01-09T21:21:42.753Z,57.76
2023-01-09T21:22:45.932Z,57.72
2023-01-09T21:23:51.447Z,57.69
2023-01-09T21:24:54.576Z,57.68
2023-01-09T21:25:58.982Z,57.52
2023-01-09T21:27:01.979Z,57.62
2023-01-09T21:28:06.064Z,57.61
2023-01-09T21:29:12.204Z,57.50
2023-01-09T21:30:15.731Z,57.45